createdAt,value
2018-08-22T00:01:53.852Z,100150.55
2018-08-22T00:04:21.464Z,100149.20
2018-08-22T00:06:49.368Z,100158.71
2018-08-22T00:09:17.645Z,100150.44
2018-08-22T00:11:45.260Z,100149.78
2018-08-22T00:14:12.896Z,100142.70
2018-08-22T00:16:40.895Z,100145.11
2018-08-22T00:19:08.494Z,100142.41
2018-08-22T00:21:36.821Z,100144.12
2018-08-22T00:24:04.416Z,100146.16
2018-08-22T00:26:32.329Z,100144.98
2018-08-22T00:29:00.245Z,100144.31
2018-08-22T00:31:27.878Z,100136.88
2018-08-22T00:33:55.842Z,100138.75
2018-08-22T00:36:23.728Z,100130.97
2018-08-22T00:38:51.364Z,100136.91
2018-08-22T00:41:19.265Z,100134.89
2018-08-22T00:43:46.899Z,100131.00
2018-08-22T00:46:17.497Z,100130.84
2018-08-22T00:48:45.084Z,100128.98
2018-08-22T00:51:13.165Z,100127.80
2018-08-22T00:53:40.755Z,100126.81
2018-08-22T00:56:08.383Z,100124.28
2018-08-22T00:58:36.413Z,100127.50
2018-08-22T01:01:04.024Z,100128.00
2018-08-22T01:03:31.643Z,100124.97
2018-08-22T01:05:59.244Z,100128.00
2018-08-22T01:08:27.166Z,100128.00
2018-08-22T01:10:54.795Z,100128.00
2018-08-22T01:13:23.408Z,100120.06
2018-08-22T01:15:51.021Z,100121.24
2018-08-22T01:18:19.091Z,100117.52
2018-08-22T01:20:46.699Z,100118.22
2018-08-22T01:23:14.304Z,100117.52
2018-08-22T01:25:42.593Z,100122.56
2018-08-22T01:28:10.641Z,100116.83
2018-08-22T01:30:38.255Z,100116.64
2018-08-22T01:33:05.864Z,100111.23
2018-08-22T01:35:33.492Z,100112.75
2018-08-22T01:38:01.397Z,100116.47
2018-08-22T01:40:28.997Z,100106.84
2018-08-22T01:42:56.635Z,100111.76
2018-08-22T01:45:24.236Z,100109.05
2018-08-22T01:47:52.099Z,100106.19
2018-08-22T01:50:19.735Z,100105.89
2018-08-22T01:52:47.347Z,100107.08
2018-08-22T01:55:15.239Z,100102.70
2018-08-22T01:57:42.856Z,100105.06
2018-08-22T02:00:10.479Z,100110.80
2018-08-22T02:02:38.116Z,100103.36
2018-08-22T02:05:06.012Z,100097.45
2018-08-22T02:07:33.629Z,100097.95
2018-08-22T02:10:01.228Z,100094.92
2018-08-22T02:12:29.463Z,100091.03
2018-08-22T02:14:58.204Z,100092.22
2018-08-22T02:17:25.802Z,100097.98
2018-08-22T02:19:53.408Z,100095.97
2018-08-22T02:22:21.026Z,100090.41
2018-08-22T02:24:48.896Z,100097.16
2018-08-22T02:27:16.541Z,100097.16
2018-08-22T02:29:44.203Z,100094.29
2018-08-22T02:32:11.802Z,100090.38
2018-08-22T02:34:39.875Z,100092.91
2018-08-22T02:37:07.470Z,100094.27
2018-08-22T02:39:35.079Z,100086.29
2018-08-22T02:42:02.707Z,100088.14
2018-08-22T02:44:30.639Z,100085.60
2018-08-22T02:46:58.246Z,100084.41
2018-08-22T02:49:25.826Z,100079.01
2018-08-22T02:51:53.432Z,100075.45
2018-08-22T02:54:22.311Z,100073.77
2018-08-22T02:56:49.930Z,100074.30
2018-08-22T02:59:17.596Z,100070.61
2018-08-22T03:01:45.219Z,100071.14
2018-08-22T03:04:14.027Z,100072.32
2018-08-22T03:06:41.628Z,100081.64
2018-08-22T03:09:10.426Z,100074.03
2018-08-22T03:11:38.051Z,100074.05
2018-08-22T03:14:05.847Z,100077.77
2018-08-22T03:16:33.579Z,100076.94
2018-08-22T03:19:01.482Z,100081.84
2018-08-22T03:21:29.079Z,100083.54
2018-08-22T03:23:56.743Z,100077.12
2018-08-22T03:26:24.423Z,100074.09
2018-08-22T03:28:52.326Z,100072.56
2018-08-22T03:31:19.927Z,100067.86
2018-08-22T03:33:48.216Z,100070.89
2018-08-22T03:36:15.865Z,100068.03
2018-08-22T03:38:43.793Z,100058.25
2018-08-22T03:41:11.399Z,100063.98
2018-08-22T03:43:39.012Z,100058.25
2018-08-22T03:46:06.639Z,100061.28
2018-08-22T03:48:34.591Z,100060.45
2018-08-22T03:51:02.251Z,100062.64
2018-08-22T03:53:29.867Z,100057.57
2018-08-22T03:55:58.442Z,100056.91
2018-08-22T03:58:26.343Z,100057.75
2018-08-22T04:00:53.999Z,100055.74
2018-08-22T04:03:21.643Z,100059.79
2018-08-22T04:05:49.274Z,100059.62
2018-08-22T04:08:17.145Z,100055.08
2018-08-22T04:10:44.746Z,100057.77
2018-08-22T04:13:12.880Z,100053.91
2018-08-22T04:15:40.526Z,100057.44
2018-08-22T04:18:08.436Z,100056.22
2018-08-22T04:20:36.072Z,100062.98
2018-08-22T04:23:03.757Z,100062.46
2018-08-22T04:25:31.378Z,100068.20
2018-08-22T04:27:59.250Z,100064.98
2018-08-22T04:30:26.899Z,100060.91
2018-08-22T04:32:54.551Z,100066.48
2018-08-22T04:35:22.495Z,100063.58
2018-08-22T04:37:50.340Z,100061.55
2018-08-22T04:40:17.982Z,100060.20
2018-08-22T04:42:45.919Z,100062.58
2018-08-22T04:45:13.531Z,100068.14
2018-08-22T04:47:41.151Z,100060.70
2018-08-22T04:50:09.066Z,100060.53
2018-08-22T04:52:36.736Z,100056.45
2018-08-22T04:55:04.426Z,100061.48
2018-08-22T04:57:32.399Z,100067.75
2018-08-22T05:00:00.009Z,100059.11
2018-08-22T05:02:27.689Z,100054.20
2018-08-22T05:04:55.632Z,100058.91
2018-08-22T05:07:23.294Z,100056.38
2018-08-22T05:09:50.887Z,100063.29
2018-08-22T05:12:18.750Z,100060.72
2018-08-22T05:14:46.396Z,100056.50
2018-08-22T05:17:14.020Z,100055.14
2018-08-22T05:19:42.632Z,100053.92
2018-08-22T05:22:10.288Z,100050.02
2018-08-22T05:24:37.974Z,100053.55
2018-08-22T05:27:05.907Z,100053.53
2018-08-22T05:29:33.500Z,100044.39
2018-08-22T05:32:01.108Z,100049.27
2018-08-22T05:34:29.759Z,100050.41
2018-08-22T05:36:57.408Z,100048.72
2018-08-22T05:39:25.088Z,100050.08
2018-08-22T05:41:52.736Z,100051.59
2018-08-22T05:44:20.409Z,100047.00
2018-08-22T05:46:48.333Z,100050.89
2018-08-22T05:49:16.022Z,100053.77
2018-08-22T05:51:43.726Z,100052.23
2018-08-22T05:54:11.614Z,100051.39
2018-08-22T05:56:39.207Z,100048.68
2018-08-22T05:59:06.800Z,100052.23
2018-08-22T06:01:34.722Z,100048.52
2018-08-22T06:04:02.343Z,100047.16
2018-08-22T06:06:30.915Z,100051.05
2018-08-22T06:08:58.800Z,100049.85
2018-08-22T06:11:26.438Z,100048.30
2018-08-22T06:13:54.082Z,100047.60
2018-08-22T06:16:22.000Z,100052.38
2018-08-22T06:18:49.641Z,100049.63
2018-08-22T06:21:17.236Z,100050.64
2018-08-22T06:23:45.131Z,100047.72
2018-08-22T06:26:12.764Z,100046.63
2018-08-22T06:28:40.674Z,100048.92
2018-08-22T06:31:08.605Z,100049.98
2018-08-22T06:33:36.247Z,100050.00
2018-08-22T06:36:03.900Z,100055.45
2018-08-22T06:38:31.933Z,100053.97
2018-08-22T06:40:59.550Z,100051.08
2018-08-22T06:43:27.235Z,100050.39
2018-08-22T06:45:55.687Z,100053.72
2018-08-22T06:48:23.756Z,100045.77
2018-08-22T06:50:51.371Z,100044.75
2018-08-22T06:53:19.255Z,100044.70
2018-08-22T06:55:46.899Z,100041.92
2018-08-22T06:58:15.212Z,100044.59
2018-08-22T07:00:43.152Z,100038.77
2018-08-22T07:03:10.864Z,100041.65
2018-08-22T07:05:38.544Z,100039.06
2018-08-22T07:08:06.439Z,100026.92
2018-08-22T07:10:35.311Z,100025.67
2018-08-22T07:13:03.206Z,100025.23
2018-08-22T07:15:31.132Z,100028.89
2018-08-22T07:17:58.752Z,100026.80
2018-08-22T07:20:26.408Z,100021.83
2018-08-22T07:22:54.290Z,100028.38
2018-08-22T07:25:21.933Z,100026.74
2018-08-22T07:27:49.554Z,100026.17
2018-08-22T07:30:17.453Z,100028.61
2018-08-22T07:32:45.056Z,100026.70
2018-08-22T07:35:12.711Z,100027.56
2018-08-22T07:37:40.840Z,100022.98
2018-08-22T07:40:08.467Z,100027.40
2018-08-22T07:42:36.615Z,100029.71
2018-08-22T07:45:04.588Z,100025.27
2018-08-22T07:47:34.918Z,100022.41
2018-08-22T07:50:02.613Z,100028.59
2018-08-22T07:52:34.295Z,100029.10
2018-08-22T07:55:02.692Z,100032.63
2018-08-22T07:57:32.348Z,100027.73
2018-08-22T08:00:00.031Z,100026.00
2018-08-22T08:02:28.388Z,100024.70
2018-08-22T08:04:56.312Z,100025.38
2018-08-22T08:07:23.947Z,100024.52
2018-08-22T08:09:51.569Z,100024.01
2018-08-22T08:12:19.740Z,100023.11
2018-08-22T08:14:51.358Z,100022.95
2018-08-22T08:17:20.261Z,100021.97
2018-08-22T08:19:48.987Z,100025.59
2018-08-22T08:22:16.658Z,100018.52
2018-08-22T08:24:44.619Z,100022.70
2018-08-22T08:27:12.481Z,100018.41
2018-08-22T08:29:40.103Z,100020.68
2018-08-22T08:32:08.837Z,100021.48
2018-08-22T08:34:36.815Z,100012.12
2018-08-22T08:37:05.772Z,100005.63
2018-08-22T08:39:33.816Z,100011.69
2018-08-22T08:42:01.480Z,100002.14
2018-08-22T08:44:29.941Z,100007.02
2018-08-22T08:47:01.051Z,100004.56
2018-08-22T08:49:30.125Z,100003.35
2018-08-22T08:51:58.038Z,99996.28
2018-08-22T08:54:25.939Z,100000.77
2018-08-22T08:56:53.615Z,99993.61
2018-08-22T08:59:22.228Z,99987.86
2018-08-22T09:01:50.293Z,99983.23
2018-08-22T09:04:17.956Z,99982.39
2018-08-22T09:06:45.642Z,99983.21
2018-08-22T09:09:14.914Z,99982.88
2018-08-22T09:11:49.495Z,99982.29
2018-08-22T09:14:17.147Z,99983.02
2018-08-22T09:16:45.595Z,99977.83
2018-08-22T09:19:13.209Z,99975.95
2018-08-22T09:21:41.456Z,99977.89
2018-08-22T09:24:09.427Z,99977.05
2018-08-22T09:26:39.849Z,99974.31
2018-08-22T09:29:08.039Z,99970.85
2018-08-22T09:31:35.953Z,99970.06
2018-08-22T09:34:04.219Z,99977.27
2018-08-22T09:36:31.814Z,99969.08
2018-08-22T09:38:59.749Z,99969.41
2018-08-22T09:41:27.557Z,99965.87
2018-08-22T09:43:56.207Z,99958.06
2018-08-22T09:46:25.419Z,99955.66
2018-08-22T09:48:56.842Z,99955.80
2018-08-22T09:51:24.551Z,99949.72
2018-08-22T09:53:53.115Z,99948.05
2018-08-22T09:56:21.287Z,99942.70
2018-08-22T09:58:48.932Z,99938.83
2018-08-22T10:01:21.759Z,99936.15
2018-08-22T10:03:52.793Z,99931.86
2018-08-22T10:06:20.420Z,99941.39
2018-08-22T10:08:48.605Z,99931.78
2018-08-22T10:11:16.300Z,99929.90
2018-08-22T10:13:44.813Z,99930.70
2018-08-22T10:16:12.692Z,99926.48
2018-08-22T10:18:41.451Z,99928.84
2018-08-22T10:21:09.084Z,99924.77
2018-08-22T10:23:37.031Z,99917.10
2018-08-22T10:26:05.487Z,99921.30
2018-08-22T10:28:33.127Z,99916.80
2018-08-22T10:31:02.252Z,99921.75
2018-08-22T10:33:30.670Z,99916.05
2018-08-22T10:36:02.030Z,99910.79
2018-08-22T10:38:30.012Z,99916.02
2018-08-22T10:40:58.719Z,99905.34
2018-08-22T10:43:28.111Z,99908.58
2018-08-22T10:45:56.157Z,99902.67
2018-08-22T10:48:24.634Z,99903.17
2018-08-22T10:50:52.391Z,99903.52
2018-08-22T10:53:21.002Z,99913.52
2018-08-22T10:55:48.688Z,99915.02
2018-08-22T10:58:16.331Z,99911.30
2018-08-22T11:00:44.271Z,99904.63
2018-08-22T11:03:11.905Z,99897.76
2018-08-22T11:05:39.551Z,99892.89
2018-08-22T11:08:08.059Z,99890.31
2018-08-22T11:10:35.757Z,99889.17
2018-08-22T11:13:03.483Z,99884.50
2018-08-22T11:15:31.426Z,99879.20
2018-08-22T11:17:59.300Z,99882.41
2018-08-22T11:20:31.585Z,99878.22
2018-08-22T11:22:59.516Z,99872.69
2018-08-22T11:25:28.051Z,99870.38
2018-08-22T11:27:55.878Z,99869.37
2018-08-22T11:30:24.839Z,99870.69
2018-08-22T11:32:53.683Z,99873.94
2018-08-22T11:35:21.569Z,99877.42
2018-08-22T11:37:50.412Z,99886.21
2018-08-22T11:40:20.664Z,99871.78
2018-08-22T11:42:48.327Z,99869.15
2018-08-22T11:45:17.283Z,99871.97
2018-08-22T11:47:45.907Z,99872.06
2018-08-22T11:50:13.514Z,99864.83
2018-08-22T11:52:41.407Z,99857.61
2018-08-22T11:55:09.009Z,99858.63
2018-08-22T11:57:36.641Z,99860.29
2018-08-22T12:00:05.817Z,99855.22
2018-08-22T12:02:33.508Z,99856.14
2018-08-22T12:05:01.194Z,99858.69
2018-08-22T12:07:29.610Z,99855.73
2018-08-22T12:09:59.491Z,99847.16
2018-08-22T12:12:31.087Z,99853.52
2018-08-22T12:15:01.195Z,99850.31
2018-08-22T12:17:30.526Z,99857.13
2018-08-22T12:19:58.195Z,99858.31
2018-08-22T12:22:28.331Z,99851.56
2018-08-22T12:24:57.033Z,99846.11
2018-08-22T12:27:24.732Z,99841.03
2018-08-22T12:29:53.908Z,99847.58
2018-08-22T12:32:21.526Z,99842.05
2018-08-22T12:34:49.205Z,99842.14
2018-08-22T12:37:17.284Z,99836.69
2018-08-22T12:39:45.599Z,99849.13
2018-08-22T12:42:15.106Z,99847.67
2018-08-22T12:44:43.628Z,99839.92
2018-08-22T12:47:11.846Z,99837.50
2018-08-22T12:49:40.423Z,99837.68
2018-08-22T12:52:08.335Z,99834.22
2018-08-22T12:54:35.955Z,99833.37
2018-08-22T12:57:03.607Z,99828.34
2018-08-22T12:59:31.505Z,99838.64
2018-08-22T13:01:59.127Z,99827.97
2018-08-22T13:04:26.769Z,99823.45
2018-08-22T13:06:54.633Z,99819.34
2018-08-22T13:09:22.272Z,99814.28
2018-08-22T13:11:49.879Z,99816.08
2018-08-22T13:14:18.555Z,99814.94
2018-08-22T13:16:48.355Z,99817.41
2018-08-22T13:19:17.670Z,99813.75
2018-08-22T13:21:46.355Z,99813.91
2018-08-22T13:24:15.367Z,99812.08
2018-08-22T13:26:43.780Z,99808.80
2018-08-22T13:29:11.770Z,99812.39
2018-08-22T13:31:40.390Z,99805.80
2018-08-22T13:34:08.014Z,99803.08
2018-08-22T13:36:35.903Z,99804.34
2018-08-22T13:39:03.801Z,99806.86
2018-08-22T13:41:32.139Z,99797.95
2018-08-22T13:43:59.788Z,99800.83
2018-08-22T13:46:27.427Z,99800.49
2018-08-22T13:48:55.396Z,99793.57
2018-08-22T13:51:23.078Z,99793.93
2018-08-22T13:53:50.735Z,99795.43
2018-08-22T13:56:18.668Z,99801.61
2018-08-22T13:58:46.359Z,99797.58
2018-08-22T14:01:13.990Z,99795.31
2018-08-22T14:03:43.999Z,99798.59
2018-08-22T14:06:11.631Z,99800.72
2018-08-22T14:08:39.219Z,99793.63
2018-08-22T14:11:08.118Z,99791.63
2018-08-22T14:13:37.900Z,99782.89
2018-08-22T14:16:05.603Z,99781.08
2018-08-22T14:18:33.483Z,99788.21
2018-08-22T14:21:01.075Z,99784.50
2018-08-22T14:23:28.726Z,99789.50
2018-08-22T14:26:00.584Z,99782.52
2018-08-22T14:28:29.903Z,99780.09
2018-08-22T14:30:58.160Z,99787.61
2018-08-22T14:33:26.541Z,99787.78
2018-08-22T14:35:55.724Z,99783.83
2018-08-22T14:38:23.349Z,99780.14
2018-08-22T14:40:51.230Z,99783.97
2018-08-22T14:43:18.981Z,99783.77
2018-08-22T14:45:46.616Z,99779.69
2018-08-22T14:48:14.620Z,99785.37
2018-08-22T14:50:43.054Z,99784.61
2018-08-22T14:53:10.701Z,99781.15
2018-08-22T14:55:38.690Z,99771.31
2018-08-22T14:58:06.557Z,99772.09
2018-08-22T15:00:35.055Z,99777.02
2018-08-22T15:03:04.292Z,99772.45
2018-08-22T15:05:32.393Z,99770.36
2018-08-22T15:08:00.705Z,99771.91
2018-08-22T15:10:28.673Z,99765.48
2018-08-22T15:12:56.568Z,99767.50
2018-08-22T15:15:25.150Z,99766.66
2018-08-22T15:17:53.436Z,99764.98
2018-08-22T15:20:21.043Z,99766.37
2018-08-22T15:22:48.725Z,99770.88
2018-08-22T15:25:16.615Z,99762.27
2018-08-22T15:27:44.258Z,99761.62
2018-08-22T15:30:11.910Z,99758.27
2018-08-22T15:32:40.749Z,99766.58
2018-08-22T15:35:08.410Z,99757.43
2018-08-22T15:37:36.078Z,99761.72
2018-08-22T15:40:04.003Z,99758.21
2018-08-22T15:42:31.640Z,99760.45
2018-08-22T15:44:59.251Z,99756.17
2018-08-22T15:47:28.651Z,99755.02
2018-08-22T15:50:02.305Z,99752.61
2018-08-22T15:52:30.876Z,99750.76
2018-08-22T15:55:07.366Z,99752.36
2018-08-22T15:57:35.070Z,99756.92
2018-08-22T16:00:02.756Z,99749.41
2018-08-22T16:02:32.412Z,99750.49
2018-08-22T16:05:01.140Z,99743.53
2018-08-22T16:07:30.469Z,99746.94
2018-08-22T16:09:58.391Z,99739.47
2018-08-22T16:12:26.879Z,99737.70
2018-08-22T16:14:56.355Z,99739.84
2018-08-22T16:17:24.270Z,99739.72
2018-08-22T16:19:54.886Z,99736.41
2018-08-22T16:22:22.613Z,99735.17
2018-08-22T16:24:51.236Z,99741.91
2018-08-22T16:27:19.840Z,99737.73
2018-08-22T16:29:47.529Z,99739.17
2018-08-22T16:32:15.432Z,99735.07
2018-08-22T16:34:43.854Z,99727.98
2018-08-22T16:37:13.445Z,99725.19
2018-08-22T16:39:42.951Z,99733.89
2018-08-22T16:42:12.526Z,99738.43
2018-08-22T16:44:40.705Z,99731.38
2018-08-22T16:47:09.535Z,99734.16
2018-08-22T16:49:39.683Z,99734.73
2018-08-22T16:52:07.316Z,99733.18
2018-08-22T16:54:35.236Z,99730.00
2018-08-22T16:57:02.926Z,99734.23
2018-08-22T16:59:30.565Z,99724.16
2018-08-22T17:02:00.670Z,99732.23
2018-08-22T17:04:28.802Z,99728.25
2018-08-22T17:06:57.831Z,99730.01
2018-08-22T17:09:26.691Z,99732.60
2018-08-22T17:11:55.934Z,99732.13
2018-08-22T17:14:23.914Z,99728.41
2018-08-22T17:16:51.794Z,99722.73
2018-08-22T17:19:20.609Z,99736.30
2018-08-22T17:21:48.265Z,99724.08
2018-08-22T17:24:16.183Z,99726.97
2018-08-22T17:26:44.076Z,99730.11
2018-08-22T17:29:11.784Z,99723.66
2018-08-22T17:31:41.253Z,99730.95
2018-08-22T17:34:09.833Z,99731.33
2018-08-22T17:36:37.684Z,99731.75
2018-08-22T17:39:06.387Z,99727.46
2018-08-22T17:41:34.060Z,99730.61
2018-08-22T17:44:04.420Z,99735.38
2018-08-22T17:46:33.162Z,99726.35
2018-08-22T17:49:00.817Z,99733.32
2018-08-22T17:51:30.204Z,99738.82
2018-08-22T17:53:58.310Z,99744.41
2018-08-22T17:56:27.147Z,99741.17
2018-08-22T17:58:56.296Z,99739.52
2018-08-22T18:01:24.564Z,99742.05
2018-08-22T18:03:54.324Z,99748.10
2018-08-22T18:06:24.309Z,99753.08
2018-08-22T18:08:52.371Z,99750.93
2018-08-22T18:11:21.633Z,99749.86
2018-08-22T18:13:51.956Z,99755.70
2018-08-22T18:16:22.484Z,99755.76
2018-08-22T18:18:50.776Z,99756.86
2018-08-22T18:21:19.300Z,99754.47
2018-08-22T18:23:54.917Z,99757.78
2018-08-22T18:26:22.589Z,99766.04
2018-08-22T18:28:56.508Z,99764.39
2018-08-22T18:31:25.307Z,99763.91
2018-08-22T18:33:55.692Z,99763.62
2018-08-22T18:36:26.520Z,99766.36
2018-08-22T18:38:59.450Z,99777.91
2018-08-22T18:41:27.542Z,99775.20
2018-08-22T18:43:56.114Z,99779.11
2018-08-22T18:46:25.154Z,99787.84
2018-08-22T18:48:53.761Z,99784.28
2018-08-22T18:51:21.891Z,99793.61
2018-08-22T18:53:50.378Z,99797.98
2018-08-22T18:56:18.356Z,99795.80
2018-08-22T18:58:46.057Z,99796.09
2018-08-22T19:01:14.937Z,99800.49
2018-08-22T19:03:42.604Z,99813.67
2018-08-22T19:06:10.838Z,99813.13
2018-08-22T19:08:41.439Z,99813.41
2018-08-22T19:11:10.847Z,99802.98
2018-08-22T19:13:41.222Z,99816.67
2018-08-22T19:16:10.590Z,99818.31
2018-08-22T19:18:38.611Z,99819.41
2018-08-22T19:21:08.334Z,99823.56
2018-08-22T19:23:37.924Z,99825.81
2018-08-22T19:26:06.622Z,99831.11
2018-08-22T19:28:39.947Z,99827.34
2018-08-22T19:31:09.749Z,99824.22
2018-08-22T19:33:38.017Z,99830.34
2018-08-22T19:36:05.859Z,99823.67
2018-08-22T19:38:33.814Z,99837.42
2018-08-22T19:41:02.734Z,99831.27
2018-08-22T19:43:30.475Z,99835.50
2018-08-22T19:45:58.960Z,99828.16
2018-08-22T19:48:26.567Z,99834.77
2018-08-22T19:50:55.481Z,99841.09
2018-08-22T19:53:26.946Z,99843.31
2018-08-22T19:55:54.575Z,99834.36
2018-08-22T19:58:28.524Z,99840.36
2018-08-22T20:00:57.188Z,99838.50
2018-08-22T20:03:28.818Z,99836.11
2018-08-22T20:05:56.740Z,99845.14
2018-08-22T20:08:29.993Z,99841.39
2018-08-22T20:10:58.272Z,99843.30
2018-08-22T20:13:26.383Z,99841.80
2018-08-22T20:15:55.323Z,99842.64
2018-08-22T20:18:25.364Z,99840.77
2018-08-22T20:20:53.595Z,99846.55
2018-08-22T20:23:22.473Z,99847.70
2018-08-22T20:25:51.250Z,99847.52
2018-08-22T20:28:19.172Z,99846.69
2018-08-22T20:30:47.732Z,99848.14
2018-08-22T20:33:15.469Z,99849.32
2018-08-22T20:35:43.395Z,99852.13
2018-08-22T20:38:12.709Z,99856.54
2018-08-22T20:40:40.653Z,99859.05
2018-08-22T20:43:09.690Z,99852.88
2018-08-22T20:45:40.483Z,99849.22
2018-08-22T20:48:08.859Z,99855.68
2018-08-22T20:50:37.950Z,99856.73
2018-08-22T20:53:06.774Z,99856.63
2018-08-22T20:55:34.645Z,99850.76
2018-08-22T20:58:04.124Z,99858.27
2018-08-22T21:00:33.272Z,99855.78
2018-08-22T21:03:00.956Z,99857.84
2018-08-22T21:05:28.919Z,99852.30
2018-08-22T21:07:57.148Z,99853.03
2018-08-22T21:10:24.782Z,99844.45
2018-08-22T21:12:52.865Z,99851.98
2018-08-22T21:15:24.598Z,99848.84
2018-08-22T21:17:53.283Z,99852.19
2018-08-22T21:20:25.080Z,99852.81
2018-08-22T21:22:53.440Z,99864.31
2018-08-22T21:25:22.083Z,99857.91
2018-08-22T21:27:50.546Z,99860.70
2018-08-22T21:30:18.486Z,99861.50
2018-08-22T21:32:48.843Z,99863.63
2018-08-22T21:35:22.906Z,99864.73
2018-08-22T21:37:51.137Z,99866.45
2018-08-22T21:40:19.697Z,99868.48
2018-08-22T21:42:47.952Z,99870.87
2018-08-22T21:45:15.611Z,99871.67
2018-08-22T21:47:43.571Z,99870.41
2018-08-22T21:50:11.269Z,99867.76
2018-08-22T21:52:39.697Z,99864.92
2018-08-22T21:55:11.332Z,99868.67
2018-08-22T21:57:40.007Z,99868.36
2018-08-22T22:00:12.073Z,99870.54
2018-08-22T22:02:45.895Z,99871.39
2018-08-22T22:05:13.939Z,99874.95
2018-08-22T22:07:41.887Z,99868.17
2018-08-22T22:10:12.984Z,99870.66
2018-08-22T22:12:40.619Z,99872.69
2018-08-22T22:15:13.740Z,99868.61
2018-08-22T22:17:41.472Z,99869.97
2018-08-22T22:20:09.208Z,99870.66
2018-08-22T22:22:37.169Z,99871.39
2018-08-22T22:25:05.231Z,99872.50
2018-08-22T22:27:32.944Z,99874.42
2018-08-22T22:30:03.883Z,99867.60
2018-08-22T22:32:32.319Z,99877.70
2018-08-22T22:35:00.980Z,99876.94
2018-08-22T22:37:29.285Z,99876.37
2018-08-22T22:40:00.845Z,99875.48
2018-08-22T22:42:30.014Z,99878.15
2018-08-22T22:45:00.745Z,99874.01
2018-08-22T22:47:33.636Z,99870.22
2018-08-22T22:50:01.831Z,99881.97
2018-08-22T22:52:29.618Z,99880.35
2018-08-22T22:54:59.392Z,99880.44
2018-08-22T22:57:28.482Z,99875.38
2018-08-22T22:59:58.894Z,99871.22
2018-08-22T23:02:27.688Z,99873.16
2018-08-22T23:04:56.542Z,99864.59
2018-08-22T23:07:27.569Z,99862.65
2018-08-22T23:09:56.311Z,99860.84
2018-08-22T23:12:35.197Z,99865.63
2018-08-22T23:15:02.847Z,99867.70
2018-08-22T23:17:30.513Z,99867.38
2018-08-22T23:20:02.409Z,99858.08
2018-08-22T23:22:30.734Z,99865.89
2018-08-22T23:24:58.365Z,99859.30
2018-08-22T23:27:27.859Z,99858.98
2018-08-22T23:29:55.514Z,99861.38
2018-08-22T23:32:23.130Z,99861.55
2018-08-22T23:34:50.776Z,99860.59
2018-08-22T23:37:19.365Z,99859.82
2018-08-22T23:39:46.962Z,99862.90
2018-08-22T23:42:14.599Z,99856.20
2018-08-22T23:44:42.350Z,99859.03
2018-08-22T23:47:10.009Z,99858.12
2018-08-22T23:49:41.624Z,99851.06
2018-08-22T23:52:09.822Z,99855.13
2018-08-22T23:54:39.468Z,99854.48
2018-08-22T23:57:07.599Z,99847.08
2018-08-22T23:59:35.212Z,99848.30
